Time;durP1;ratioP1;P1;durP2;ratioP2;P2;SDS_P1;SDS_P2;PMS_P1;PMS_P2;Temp;Humidity;BMP_temperature;BMP_pressure;BME280_temperature;BME280_humidity;BME280_pressure;Samples;Min_cycle;Max_cycle;Signal;HPM_P1;HPM_P2
2021/11/30 00:01:28;;;;;;;6.60;5.70;;;-0.90;96.30;;;;;;5036466;28;20419;-79
2021/11/30 00:03:54;;;;;;;7.07;5.83;;;-0.90;96.30;;;;;;5017010;28;20418;-79
2021/11/30 00:06:19;;;;;;;6.60;5.23;;;-0.90;96.30;;;;;;5016493;28;20435;-79
2021/11/30 00:08:47;;;;;;;6.93;5.73;;;-0.90;96.30;;;;;;5033849;28;20226;-79
2021/11/30 00:11:13;;;;;;;8.03;5.80;;;-0.90;96.30;;;;;;5016104;28;20200;-79
2021/11/30 00:13:40;;;;;;;5.93;5.10;;;-0.90;96.30;;;;;;5034848;28;20441;-79
2021/11/30 00:16:07;;;;;;;9.73;6.47;;;-0.90;96.30;;;;;;5034278;28;20203;-79
2021/11/30 00:18:34;;;;;;;7.30;5.63;;;-0.90;96.30;;;;;;5016593;28;20423;-79
2021/11/30 00:21:02;;;;;;;5.67;4.97;;;-0.90;96.30;;;;;;5033685;28;20433;-79
2021/11/30 00:23:27;;;;;;;7.03;5.47;;;-0.80;96.30;;;;;;5033005;28;20418;-80
2021/11/30 00:25:53;;;;;;;6.33;5.13;;;-0.90;96.30;;;;;;5016593;28;20945;-79
2021/11/30 00:28:18;;;;;;;6.00;4.60;;;-0.90;96.30;;;;;;5046013;28;20246;-80
2021/11/30 00:30:44;;;;;;;6.60;5.40;;;-0.80;96.30;;;;;;5073882;28;20548;-79
2021/11/30 00:33:10;;;;;;;5.00;4.50;;;-0.80;96.30;;;;;;5055542;28;20183;-79
2021/11/30 00:35:36;;;;;;;5.13;4.50;;;-0.80;96.30;;;;;;5073848;28;20213;-79
2021/11/30 00:38:02;;;;;;;5.03;4.53;;;-0.80;96.30;;;;;;5055803;28;20417;-80
2021/11/30 00:40:28;;;;;;;6.13;5.00;;;-0.80;96.30;;;;;;5055816;28;20405;-79
2021/11/30 00:42:56;;;;;;;5.30;4.80;;;-0.80;96.30;;;;;;5055233;28;20489;-79
2021/11/30 00:45:23;;;;;;;5.37;4.57;;;-0.90;96.30;;;;;;5055905;28;20508;-79
2021/11/30 00:47:55;;;;;;;9.17;5.37;;;-0.90;96.30;;;;;;5073568;28;20425;-80
2021/11/30 00:50:23;;;;;;;6.20;4.40;;;-0.90;96.30;;;;;;5055828;28;20429;-79
2021/11/30 00:52:49;;;;;;;5.10;4.60;;;-0.90;96.30;;;;;;5055087;28;20510;-80
2021/11/30 00:55:15;;;;;;;4.90;4.23;;;-0.90;96.30;;;;;;5073786;28;20485;-79
2021/11/30 00:57:43;;;;;;;5.73;4.40;;;-0.90;96.30;;;;;;5073303;28;20936;-79
2021/11/30 05:02:18;;;;;;;5.90;4.33;;;-0.30;96.30;;;;;;5083955;23;20509;-80
2021/11/30 05:04:46;;;;;;;5.90;4.03;;;-0.30;96.30;;;;;;4863865;29;20805;-80
2021/11/30 05:07:14;;;;;;;5.60;4.20;;;-0.30;96.30;;;;;;4862303;29;20430;-79
2021/11/30 05:09:39;;;;;;;4.00;3.60;;;-0.20;96.30;;;;;;4865067;29;20411;-80
2021/11/30 05:12:05;;;;;;;2.90;2.70;;;-0.20;96.30;;;;;;4863661;29;20454;-80
2021/11/30 05:14:31;;;;;;;4.67;4.17;;;-0.20;96.30;;;;;;4862631;29;20191;-80
2021/11/30 05:16:56;;;;;;;5.37;4.10;;;-0.20;96.30;;;;;;4862044;29;20551;-81
2021/11/30 05:19:22;;;;;;;4.43;4.03;;;-0.20;96.30;;;;;;4862958;29;20178;-80
2021/11/30 06:36:53;;;;;;;2.37;1.97;;;0.30;96.30;;;;;;5509703;23;20761;-77
2021/11/30 06:39:18;;;;;;;2.80;1.90;;;0.30;96.30;;;;;;4878315;29;20557;-77
2021/11/30 06:41:44;;;;;;;6.20;2.20;;;0.20;96.30;;;;;;4878052;29;20325;-77
2021/11/30 06:44:09;;;;;;;2.20;1.60;;;0.20;96.30;;;;;;4875531;29;20178;-78
2021/11/30 06:46:35;;;;;;;2.53;1.77;;;0.20;96.30;;;;;;4861360;29;20197;-77
2021/11/30 06:49:00;;;;;;;1.83;1.60;;;0.20;96.30;;;;;;4859010;29;20205;-78
2021/11/30 06:51:26;;;;;;;1.90;1.70;;;0.10;96.30;;;;;;5354690;23;21037;-78
2021/11/30 06:53:51;;;;;;;1.77;1.40;;;0.10;96.30;;;;;;4875062;29;20813;-78
2021/11/30 06:56:17;;;;;;;2.43;1.60;;;0.10;96.30;;;;;;4877851;29;20249;-78
2021/11/30 06:58:42;;;;;;;2.60;1.63;;;0.10;96.30;;;;;;4878780;29;20243;-78
2021/11/30 07:01:10;;;;;;;1.10;0.90;;;0.10;96.30;;;;;;4885805;29;20253;-79
2021/11/30 07:03:36;;;;;;;1.87;1.50;;;0.10;96.30;;;;;;4873876;29;20186;-77
2021/11/30 07:06:11;;;;;;;2.80;2.30;;;0.20;96.30;;;;;;4878008;29;20482;-77
2021/11/30 07:13:45;;;;;;;1.30;1.20;;;0.20;96.30;;;;;;4859963;29;20469;-76
2021/11/30 07:16:11;;;;;;;1.70;1.23;;;0.10;96.30;;;;;;4852417;29;20459;-76
2021/11/30 07:18:37;;;;;;;2.90;1.30;;;0.10;96.30;;;;;;4856230;29;20194;-75
2021/11/30 07:21:03;;;;;;;1.70;1.60;;;0.10;96.30;;;;;;4852146;29;20611;-76
2021/11/30 07:23:30;;;;;;;1.20;1.10;;;0.10;96.30;;;;;;4844136;29;20274;-75
2021/11/30 07:25:55;;;;;;;1.40;1.30;;;0.10;96.30;;;;;;4844668;29;20426;-75
2021/11/30 08:49:44;;;;;;;1.33;0.83;;;0.30;96.30;;;;;;3943799;23;20625;-74
2021/11/30 09:32:49;;;;;;;1.30;0.80;;;0.70;96.30;;;;;;4897807;29;20871;-73
2021/11/30 09:35:18;;;;;;;1.30;0.60;;;0.80;96.30;;;;;;4819768;29;20474;-73
2021/11/30 09:50:43;;;;;;;3.53;0.90;;;0.80;96.30;;;;;;5426079;23;20489;-73
2021/11/30 09:53:09;;;;;;;1.50;0.60;;;0.70;96.30;;;;;;4878892;29;20427;-73
2021/11/30 09:55:36;;;;;;;1.47;0.60;;;0.80;96.30;;;;;;4878691;29;20896;-73
2021/11/30 09:58:03;;;;;;;1.00;0.60;;;0.80;96.30;;;;;;4878562;29;21077;-73
2021/11/30 10:00:28;;;;;;;0.90;0.50;;;0.80;96.30;;;;;;4878702;29;20426;-73
2021/11/30 10:02:55;;;;;;;0.90;0.70;;;0.90;96.30;;;;;;4879041;29;20406;-73
2021/11/30 10:05:22;;;;;;;1.37;0.80;;;0.90;96.30;;;;;;4878588;29;20673;-73
2021/11/30 10:07:51;;;;;;;2.40;0.60;;;0.90;96.30;;;;;;5090654;23;20493;-73
2021/11/30 10:10:24;;;;;;;1.13;0.70;;;0.90;96.30;;;;;;4877534;29;20426;-73
2021/11/30 10:13:11;;;;;;;0.80;0.50;;;0.90;96.30;;;;;;4878382;29;20414;-73
2021/11/30 10:15:45;;;;;;;0.80;0.60;;;0.90;96.30;;;;;;4878530;29;20473;-73
2021/11/30 10:20:49;;;;;;;1.07;0.70;;;1.00;96.30;;;;;;4878024;24;20496;-73
2021/11/30 10:23:17;;;;;;;0.70;0.50;;;1.00;96.30;;;;;;4878251;29;20422;-73
2021/11/30 10:25:45;;;;;;;0.80;0.60;;;1.00;96.30;;;;;;4878280;29;20512;-73
2021/11/30 10:41:27;;;;;;;0.80;0.53;;;1.10;96.30;;;;;;4972379;23;20497;-73
2021/11/30 10:44:04;;;;;;;0.90;0.60;;;1.10;96.30;;;;;;4883319;29;20417;-73
2021/11/30 10:46:34;;;;;;;0.80;0.60;;;1.10;96.30;;;;;;4896907;29;20512;-73
2021/11/30 10:49:00;;;;;;;0.80;0.50;;;1.10;96.30;;;;;;4876795;29;20919;-71
2021/11/30 10:51:28;;;;;;;0.80;0.50;;;1.10;96.30;;;;;;4861243;29;20957;-71
2021/11/30 10:53:59;;;;;;;0.80;0.50;;;1.20;96.30;;;;;;4863857;29;20411;-73
2021/11/30 10:56:26;;;;;;;3.97;0.57;;;1.30;96.30;;;;;;4862082;29;20475;-73
2021/11/30 10:58:55;;;;;;;1.00;0.67;;;1.40;96.30;;;;;;5403610;23;20493;-73
2021/11/30 11:01:23;;;;;;;0.93;0.60;;;1.40;96.30;;;;;;4900748;29;20445;-73
2021/11/30 11:04:03;;;;;;;0.80;0.50;;;1.50;96.30;;;;;;4900953;29;20417;-73
2021/11/30 11:06:29;;;;;;;0.80;0.40;;;1.60;96.30;;;;;;4900819;29;20409;-73
2021/11/30 11:09:00;;;;;;;1.10;0.70;;;1.50;96.30;;;;;;5609185;23;20496;-73
2021/11/30 11:11:32;;;;;;;1.87;0.60;;;1.60;96.30;;;;;;4880073;29;20450;-73
2021/11/30 11:13:57;;;;;;;0.90;0.60;;;1.60;96.30;;;;;;4890253;29;20426;-73
2021/11/30 11:16:32;;;;;;;1.03;0.60;;;1.60;96.30;;;;;;4887760;29;20475;-73
2021/11/30 12:49:35;;;;;;;0.70;0.40;;;0.80;96.30;;;;;;5915751;23;20399;-74
2021/11/30 12:52:21;;;;;;;1.40;0.60;;;0.80;96.30;;;;;;4879862;29;20561;-74
2021/11/30 12:54:59;;;;;;;0.90;0.60;;;0.80;96.30;;;;;;4880143;29;20177;-74
2021/11/30 12:57:31;;;;;;;0.90;0.50;;;0.80;96.30;;;;;;4879014;29;20863;-74
2021/11/30 13:00:00;;;;;;;0.77;0.47;;;0.90;96.30;;;;;;4879198;29;20789;-74
2021/11/30 13:02:38;;;;;;;1.67;0.50;;;0.90;96.30;;;;;;4882142;29;20425;-74
2021/11/30 13:05:14;;;;;;;0.80;0.57;;;0.90;96.30;;;;;;4898005;29;20417;-74
2021/11/30 14:27:59;;;;;;;1.10;0.50;;;1.30;96.30;;;;;;5351870;23;20509;-75
2021/11/30 14:30:31;;;;;;;1.73;0.50;;;1.30;96.30;;;;;;4877385;29;20429;-76
2021/11/30 14:33:07;;;;;;;0.80;0.60;;;1.40;96.30;;;;;;4874927;29;20450;-75
2021/11/30 14:35:58;;;;;;;0.80;0.50;;;1.30;96.30;;;;;;4878219;29;20493;-76
2021/11/30 14:38:37;;;;;;;0.93;0.57;;;1.30;96.30;;;;;;4877424;29;20831;-76
2021/11/30 14:41:07;;;;;;;0.80;0.50;;;1.20;96.30;;;;;;4878999;29;20501;-74
2021/11/30 14:43:35;;;;;;;1.00;0.60;;;1.30;96.30;;;;;;4878553;29;20440;-74
2021/11/30 14:46:00;;;;;;;0.80;0.50;;;1.30;96.30;;;;;;4875756;29;20430;-74
2021/11/30 15:38:40;;;;;;;0.80;0.50;;;1.10;96.30;;;;;;4925924;23;20531;-76
2021/11/30 17:00:24;;;;;;;2.40;0.80;;;0.80;96.30;;;;;;5038635;23;20865;-73
2021/11/30 17:02:50;;;;;;;1.10;0.83;;;0.90;96.30;;;;;;4879643;29;20414;-73
2021/11/30 17:05:16;;;;;;;1.20;0.97;;;0.80;96.30;;;;;;4878708;29;20235;-72
2021/11/30 18:30:31;;;;;;;1.47;0.90;;;1.30;96.30;;;;;;4730939;27;20486;-72
2021/11/30 18:32:56;;;;;;;1.00;0.90;;;1.30;96.30;;;;;;5014263;23;20538;-74
2021/11/30 18:37:57;;;;;;;1.60;1.47;;;1.30;96.30;;;;;;4998771;23;20272;-73
2021/11/30 18:40:24;;;;;;;1.20;1.10;;;1.40;96.30;;;;;;4896844;29;20429;-73
2021/11/30 18:42:50;;;;;;;1.40;1.30;;;1.50;96.30;;;;;;4896853;29;20248;-73
2021/11/30 18:45:15;;;;;;;1.57;1.30;;;1.40;96.30;;;;;;4897053;29;20890;-73
2021/11/30 18:47:41;;;;;;;1.13;1.03;;;1.50;96.30;;;;;;4895351;29;20228;-73
2021/11/30 18:50:07;;;;;;;1.97;1.10;;;1.50;96.30;;;;;;4895862;29;20173;-73
2021/11/30 18:52:32;;;;;;;2.80;1.30;;;1.60;96.30;;;;;;4859780;29;20178;-73
2021/11/30 18:54:58;;;;;;;1.53;1.07;;;1.60;96.30;;;;;;4859862;29;20202;-73
2021/11/30 18:57:23;;;;;;;1.73;1.20;;;1.60;96.30;;;;;;4859544;29;20214;-73
2021/11/30 18:59:49;;;;;;;1.10;1.00;;;1.60;96.30;;;;;;4859769;29;20174;-73
2021/11/30 19:02:15;;;;;;;2.50;1.07;;;1.70;96.30;;;;;;4859835;29;20174;-74
2021/11/30 19:04:40;;;;;;;3.37;1.10;;;1.70;96.30;;;;;;4859831;29;20182;-73
2021/11/30 19:12:51;;;;;;;1.33;1.00;;;1.80;96.30;;;;;;4943821;23;20493;-73
2021/11/30 19:15:18;;;;;;;2.37;1.27;;;1.90;96.30;;;;;;4897026;29;20424;-73
2021/11/30 19:17:43;;;;;;;1.77;1.33;;;1.90;96.30;;;;;;4885741;29;20865;-73
2021/11/30 19:20:09;;;;;;;1.63;1.53;;;1.90;96.30;;;;;;4880574;29;20535;-73
2021/11/30 19:22:38;;;;;;;2.70;1.40;;;1.90;96.30;;;;;;4881811;29;20291;-73
2021/11/30 19:25:05;;;;;;;1.80;1.70;;;2.00;96.30;;;;;;4882210;29;20410;-73
2021/11/30 19:37:57;;;;;;;2.10;1.60;;;2.00;96.30;;;;;;5313150;23;20545;-74
2021/11/30 19:40:23;;;;;;;2.50;1.87;;;2.10;96.30;;;;;;4890650;29;20409;-74
2021/11/30 19:42:52;;;;;;;2.07;1.53;;;2.10;96.30;;;;;;4862663;29;20494;-73
2021/11/30 19:45:18;;;;;;;2.50;1.40;;;2.10;96.30;;;;;;4862664;29;20419;-74
2021/11/30 19:47:43;;;;;;;5.47;1.80;;;2.20;96.30;;;;;;4866792;29;21033;-74
2021/11/30 19:50:12;;;;;;;2.97;1.50;;;2.20;96.30;;;;;;4900359;29;20173;-73
2021/11/30 19:52:37;;;;;;;2.20;1.70;;;2.30;96.30;;;;;;4900036;29;20181;-74
2021/11/30 19:55:04;;;;;;;1.43;1.10;;;2.30;96.30;;;;;;4899915;29;20554;-73
2021/11/30 20:07:53;;;;;;;3.33;1.43;;;2.40;96.30;;;;;;4310707;23;21024;-74
2021/11/30 20:10:19;;;;;;;3.50;1.10;;;2.40;96.30;;;;;;4879717;29;20462;-74
2021/11/30 20:12:46;;;;;;;2.20;1.20;;;2.30;96.30;;;;;;4879292;29;20441;-74
2021/11/30 20:17:54;;;;;;;4.47;1.30;;;2.40;96.30;;;;;;4880246;29;20529;-74
2021/11/30 20:20:21;;;;;;;4.27;1.13;;;2.40;96.30;;;;;;4880366;29;20414;-74
2021/11/30 20:22:47;;;;;;;4.97;1.47;;;2.40;96.30;;;;;;4880061;29;20521;-74
2021/11/30 20:25:12;;;;;;;4.47;1.47;;;2.40;96.30;;;;;;4880110;29;20509;-75
2021/11/30 20:40:48;;;;;;;3.30;1.27;;;2.40;96.30;;;;;;4899294;29;20404;-75
2021/11/30 20:43:15;;;;;;;3.00;1.03;;;2.30;96.30;;;;;;4899029;29;20409;-75
2021/11/30 20:45:42;;;;;;;4.63;1.10;;;2.20;96.30;;;;;;4885340;29;20497;-76
2021/11/30 20:48:09;;;;;;;3.17;0.90;;;2.20;96.30;;;;;;4880018;29;20482;-75
2021/11/30 20:50:35;;;;;;;2.70;1.10;;;2.20;96.30;;;;;;4880195;29;20414;-75
2021/11/30 20:53:02;;;;;;;8.50;1.00;;;2.20;96.30;;;;;;4879999;29;20406;-75
2021/11/30 20:55:28;;;;;;;4.80;1.37;;;2.20;96.30;;;;;;4879869;29;20450;-75
2021/11/30 20:57:54;;;;;;;2.03;0.80;;;2.20;96.30;;;;;;4879635;29;20841;-75
2021/11/30 21:00:20;;;;;;;7.53;1.20;;;2.20;96.30;;;;;;4878864;29;20433;-75
2021/11/30 21:02:46;;;;;;;7.70;1.20;;;2.10;96.30;;;;;;4878518;29;20418;-75
2021/11/30 21:05:15;;;;;;;5.73;0.97;;;2.10;96.30;;;;;;4879749;29;20177;-75
2021/11/30 21:07:41;;;;;;;2.77;0.80;;;2.00;96.30;;;;;;4879395;29;20200;-76
2021/11/30 21:10:11;;;;;;;3.07;0.80;;;2.00;96.30;;;;;;4878431;29;20517;-76
2021/11/30 21:12:49;;;;;;;5.87;1.20;;;2.00;96.30;;;;;;4879738;29;20951;-75
2021/11/30 21:15:15;;;;;;;9.50;1.70;;;2.10;96.30;;;;;;4879482;29;20482;-76
2021/11/30 21:17:42;;;;;;;1.77;0.80;;;2.00;96.30;;;;;;4879256;29;20529;-75
2021/11/30 21:20:16;;;;;;;4.50;1.30;;;2.00;96.30;;;;;;4875947;29;21017;-76
2021/11/30 21:22:46;;;;;;;3.93;1.00;;;2.00;96.30;;;;;;4867200;29;20438;-75
2021/11/30 21:25:16;;;;;;;5.80;1.20;;;2.00;96.30;;;;;;4870752;29;20415;-75
2021/11/30 21:27:42;;;;;;;5.93;0.93;;;2.00;96.30;;;;;;4871781;29;20449;-75
2021/11/30 21:30:08;;;;;;;4.50;1.13;;;1.90;96.30;;;;;;4872707;29;20518;-76
2021/11/30 21:32:34;;;;;;;4.30;1.00;;;1.90;96.30;;;;;;4876651;29;20193;-76
2021/11/30 21:35:00;;;;;;;10.60;0.93;;;1.90;96.30;;;;;;4879040;29;20414;-76
2021/11/30 21:37:26;;;;;;;3.20;0.80;;;1.90;96.30;;;;;;4875482;29;20240;-76
2021/11/30 21:39:51;;;;;;;2.47;0.90;;;1.90;96.30;;;;;;4860852;29;20217;-76
2021/11/30 21:42:18;;;;;;;4.13;1.07;;;1.90;96.30;;;;;;4858755;29;20269;-76
2021/11/30 21:44:45;;;;;;;4.40;1.47;;;1.90;96.30;;;;;;4860477;29;20179;-75
2021/11/30 21:47:12;;;;;;;3.80;1.20;;;1.90;96.30;;;;;;4860282;29;20466;-76
2021/11/30 21:49:37;;;;;;;2.70;0.80;;;1.90;96.30;;;;;;4860691;29;20829;-76
2021/11/30 21:52:04;;;;;;;5.13;1.23;;;1.90;96.30;;;;;;4879057;29;20456;-76
2021/11/30 21:54:31;;;;;;;5.13;1.57;;;1.80;96.30;;;;;;4896418;29;20192;-76
2021/11/30 21:56:58;;;;;;;1.90;0.77;;;1.90;96.30;;;;;;4896491;29;20539;-76
2021/11/30 21:59:27;;;;;;;5.03;1.13;;;1.90;96.30;;;;;;4897613;29;20425;-76
2021/11/30 22:01:53;;;;;;;5.80;1.23;;;1.90;96.30;;;;;;4897399;29;20422;-76
2021/11/30 22:04:19;;;;;;;5.47;1.00;;;1.90;96.30;;;;;;4897391;29;20409;-76
2021/11/30 22:06:44;;;;;;;5.47;1.23;;;1.90;96.30;;;;;;4897182;29;20444;-76
2021/11/30 22:09:10;;;;;;;4.97;1.00;;;2.00;96.30;;;;;;4896083;29;20177;-76
2021/11/30 22:11:35;;;;;;;3.00;1.10;;;1.90;96.30;;;;;;4897237;29;20257;-76
2021/11/30 22:14:01;;;;;;;4.50;1.03;;;1.90;96.30;;;;;;4880313;29;20650;-76
2021/11/30 22:16:27;;;;;;;12.77;1.77;;;2.00;96.30;;;;;;4876594;29;20213;-76
2021/11/30 22:18:52;;;;;;;4.43;1.37;;;2.00;96.30;;;;;;4877393;29;20208;-77
2021/11/30 22:21:18;;;;;;;2.80;0.80;;;2.00;96.30;;;;;;4877815;29;20682;-76
2021/11/30 22:23:43;;;;;;;1.87;1.00;;;1.90;96.30;;;;;;4865516;29;20694;-76
2021/11/30 22:26:11;;;;;;;6.30;1.53;;;1.80;96.30;;;;;;4858928;29;20311;-76
2021/11/30 22:28:37;;;;;;;7.60;1.60;;;1.90;96.30;;;;;;4873022;29;20195;-76
2021/11/30 22:31:02;;;;;;;4.87;1.17;;;1.90;96.30;;;;;;4897045;29;20417;-76
2021/11/30 22:33:28;;;;;;;2.10;1.10;;;1.90;96.30;;;;;;4897210;29;20177;-76
2021/11/30 22:35:54;;;;;;;5.10;2.03;;;1.80;96.30;;;;;;4896087;29;20205;-77
2021/11/30 22:38:20;;;;;;;5.77;1.30;;;1.80;96.30;;;;;;4896709;29;20178;-76
2021/11/30 22:40:46;;;;;;;7.07;1.30;;;1.80;96.30;;;;;;4896820;29;20761;-76
2021/11/30 22:43:11;;;;;;;2.93;1.10;;;1.80;96.30;;;;;;4895572;29;20601;-76
2021/11/30 22:45:37;;;;;;;5.53;1.30;;;1.80;96.30;;;;;;4895522;29;20538;-76
2021/11/30 22:48:02;;;;;;;6.57;1.27;;;1.70;96.30;;;;;;4896437;29;20284;-76
2021/11/30 22:50:28;;;;;;;5.43;1.70;;;1.70;96.30;;;;;;4897099;29;20173;-76
2021/11/30 22:52:55;;;;;;;6.40;1.30;;;1.70;96.30;;;;;;4897301;29;20237;-76
2021/11/30 22:55:24;;;;;;;4.30;1.10;;;1.70;96.30;;;;;;4896588;29;20269;-77
2021/11/30 22:57:51;;;;;;;6.87;1.20;;;1.70;96.30;;;;;;4896355;29;20433;-76
2021/11/30 23:00:41;;;;;;;7.70;1.73;;;1.70;96.30;;;;;;4895658;29;20421;-76
2021/11/30 23:03:08;;;;;;;5.30;1.23;;;1.70;96.30;;;;;;4896909;29;20413;-76
2021/11/30 23:05:34;;;;;;;5.20;1.37;;;1.70;96.30;;;;;;4895633;29;20418;-76
2021/11/30 23:08:00;;;;;;;5.47;1.10;;;1.80;96.30;;;;;;4895198;29;20456;-76
2021/11/30 23:10:27;;;;;;;6.60;1.50;;;1.80;96.30;;;;;;4896906;29;20259;-76
2021/11/30 23:12:53;;;;;;;4.90;1.20;;;1.80;96.30;;;;;;4895797;29;20421;-76
2021/11/30 23:15:22;;;;;;;6.07;1.10;;;1.80;96.30;;;;;;4896704;29;20436;-76
2021/11/30 23:17:49;;;;;;;8.93;1.30;;;1.80;96.30;;;;;;4896609;29;20193;-77
2021/11/30 23:20:16;;;;;;;7.73;1.50;;;1.80;96.30;;;;;;4897147;29;20505;-76
2021/11/30 23:22:43;;;;;;;8.97;2.13;;;1.80;96.30;;;;;;4896671;29;20417;-76
2021/11/30 23:25:19;;;;;;;4.20;1.50;;;1.80;96.30;;;;;;4895372;29;20928;-77
2021/11/30 23:27:46;;;;;;;3.37;1.17;;;1.80;96.30;;;;;;4895349;29;20440;-76
2021/11/30 23:30:13;;;;;;;4.63;1.50;;;1.80;96.30;;;;;;4876646;29;20474;-76
2021/11/30 23:32:39;;;;;;;8.10;1.47;;;1.80;96.30;;;;;;4877956;29;20900;-76
2021/11/30 23:35:06;;;;;;;5.03;1.20;;;1.80;96.30;;;;;;4877749;29;20531;-76
2021/11/30 23:37:32;;;;;;;4.13;1.40;;;1.80;96.30;;;;;;4876311;29;20249;-77
2021/11/30 23:40:05;;;;;;;3.50;1.77;;;1.80;96.30;;;;;;4877967;29;20504;-77
2021/11/30 23:42:31;;;;;;;6.10;1.30;;;1.80;96.30;;;;;;4877956;29;20775;-77
2021/11/30 23:44:57;;;;;;;6.50;1.10;;;1.80;96.30;;;;;;4877748;29;20422;-77
2021/11/30 23:47:22;;;;;;;5.83;1.80;;;1.80;96.30;;;;;;4876220;29;20448;-76
2021/11/30 23:49:49;;;;;;;8.10;1.80;;;1.80;96.30;;;;;;4877731;29;20193;-77
2021/11/30 23:52:16;;;;;;;4.13;1.03;;;1.80;96.30;;;;;;4877816;29;20284;-77
2021/11/30 23:54:41;;;;;;;7.33;1.63;;;1.80;96.30;;;;;;4877776;29;20962;-77
2021/11/30 23:57:07;;;;;;;5.23;1.10;;;1.80;96.30;;;;;;4877350;29;20530;-77
2021/11/30 23:59:32;;;;;;;2.63;0.83;;;1.70;96.30;;;;;;4879148;29;20607;-77
